createdAt,value
2023-11-22T00:02:12.961Z,5.82
2023-11-22T00:04:43.538Z,5.80
2023-11-22T00:07:14.294Z,5.79
2023-11-22T00:09:44.777Z,5.77
2023-11-22T00:12:18.321Z,5.74
2023-11-22T00:14:49.237Z,5.73
2023-11-22T00:17:19.790Z,5.73
2023-11-22T00:19:50.737Z,5.72
2023-11-22T00:22:21.318Z,5.72
2023-11-22T00:24:52.385Z,5.73
2023-11-22T00:27:23.146Z,5.76
2023-11-22T00:29:53.632Z,5.78
2023-11-22T00:32:24.223Z,5.78
2023-11-22T00:34:55.063Z,5.79
2023-11-22T00:37:25.565Z,5.78
2023-11-22T00:39:56.036Z,5.78
2023-11-22T00:42:26.476Z,5.78
2023-11-22T00:44:56.935Z,5.77
2023-11-22T00:47:27.488Z,5.74
2023-11-22T00:49:58.125Z,5.70
2023-11-22T00:52:28.616Z,5.70
2023-11-22T00:54:59.368Z,5.67
2023-11-22T00:57:31.486Z,5.66
2023-11-22T01:00:04.021Z,5.63
2023-11-22T01:02:34.568Z,5.61
2023-11-22T01:05:05.239Z,5.61
2023-11-22T01:07:35.699Z,5.61
2023-11-22T01:10:07.336Z,5.62
2023-11-22T01:12:37.845Z,5.61
2023-11-22T01:15:10.632Z,5.61
2023-11-22T01:17:41.220Z,5.63
2023-11-22T01:20:15.091Z,5.64
2023-11-22T01:22:46.231Z,5.65
2023-11-22T01:25:17.166Z,5.64
2023-11-22T01:27:47.654Z,5.65
2023-11-22T01:30:19.640Z,5.65
2023-11-22T01:32:51.117Z,5.67
2023-11-22T01:35:21.729Z,5.68
2023-11-22T01:37:52.440Z,5.69
2023-11-22T01:40:23.827Z,5.67
2023-11-22T01:42:55.856Z,5.65
2023-11-22T01:45:26.318Z,5.65
2023-11-22T01:47:57.631Z,5.67
2023-11-22T01:50:28.665Z,5.66
2023-11-22T01:53:00.019Z,5.64
2023-11-22T01:55:31.648Z,5.64
2023-11-22T01:58:03.445Z,5.65
2023-11-22T02:00:38.251Z,5.64
2023-11-22T02:03:08.855Z,5.65
2023-11-22T02:05:44.411Z,5.64
2023-11-22T02:08:15.724Z,5.63
2023-11-22T02:10:50.852Z,5.61
2023-11-22T02:13:21.888Z,5.61
2023-11-22T02:15:53.768Z,5.61
2023-11-22T02:18:25.252Z,5.63
2023-11-22T02:20:55.832Z,5.62
2023-11-22T02:23:26.332Z,5.61
2023-11-22T02:25:56.844Z,5.60
2023-11-22T02:28:27.503Z,5.59
2023-11-22T02:30:58.006Z,5.58
2023-11-22T02:33:28.578Z,5.56
2023-11-22T02:35:59.089Z,5.56
2023-11-22T02:38:29.711Z,5.55
2023-11-22T02:41:00.292Z,5.54
2023-11-22T02:43:30.787Z,5.53
2023-11-22T02:46:01.309Z,5.52
2023-11-22T02:48:31.776Z,5.51
2023-11-22T02:51:02.282Z,5.50
2023-11-22T02:53:33.438Z,5.50
2023-11-22T02:56:04.644Z,5.51
2023-11-22T02:58:35.160Z,5.52
2023-11-22T03:01:05.763Z,5.52
2023-11-22T03:03:36.535Z,5.53
2023-11-22T03:06:07.679Z,5.54
2023-11-22T03:08:38.629Z,5.52
2023-11-22T03:11:09.209Z,5.52
2023-11-22T03:13:39.712Z,5.51
2023-11-22T03:16:11.965Z,5.49
2023-11-22T03:18:40.931Z,5.46
2023-11-22T03:21:11.497Z,5.44
2023-11-22T03:23:43.436Z,5.44
2023-11-22T03:26:14.387Z,5.44
2023-11-22T03:28:45.214Z,5.45
2023-11-22T03:31:16.877Z,5.49
2023-11-22T03:33:47.738Z,5.51
2023-11-22T03:36:18.219Z,5.50
2023-11-22T03:38:48.716Z,5.50
2023-11-22T03:41:19.640Z,5.49
2023-11-22T03:43:50.114Z,5.48
2023-11-22T03:46:20.690Z,5.48
2023-11-22T03:48:51.133Z,5.47
2023-11-22T03:51:21.587Z,5.42
2023-11-22T03:53:52.044Z,5.38
2023-11-22T03:56:22.660Z,5.35
2023-11-22T03:58:53.393Z,5.34
2023-11-22T04:01:24.235Z,5.33
2023-11-22T04:03:55.213Z,5.33
2023-11-22T04:06:25.884Z,5.32
2023-11-22T04:08:56.337Z,5.32
2023-11-22T04:11:29.412Z,5.33
2023-11-22T04:14:00.021Z,5.32
2023-11-22T04:16:31.095Z,5.32
2023-11-22T04:19:02.147Z,5.32
2023-11-22T04:21:33.122Z,5.33
2023-11-22T04:24:03.699Z,5.34
2023-11-22T04:26:34.188Z,5.33
2023-11-22T04:29:05.593Z,5.31
2023-11-22T04:31:36.276Z,5.32
2023-11-22T04:34:06.904Z,5.33
2023-11-22T04:36:38.326Z,5.31
2023-11-22T04:39:09.348Z,5.32
2023-11-22T04:41:39.848Z,5.32
2023-11-22T04:44:10.492Z,5.31
2023-11-22T04:46:41.106Z,5.30
2023-11-22T04:49:11.797Z,5.30
2023-11-22T04:51:44.395Z,5.30
2023-11-22T04:54:15.322Z,5.29
2023-11-22T04:56:45.856Z,5.27
2023-11-22T04:59:16.833Z,5.28
2023-11-22T05:01:47.434Z,5.28
2023-11-22T05:04:19.646Z,5.28
2023-11-22T05:06:50.439Z,5.27
2023-11-22T05:09:21.087Z,5.25
2023-11-22T05:11:53.252Z,5.23
2023-11-22T05:14:25.316Z,5.21
2023-11-22T05:16:56.368Z,5.20
2023-11-22T05:19:26.897Z,5.20
2023-11-22T05:21:57.401Z,5.20
2023-11-22T05:24:27.859Z,5.20
2023-11-22T05:26:58.351Z,5.20
2023-11-22T05:29:34.703Z,5.21
2023-11-22T05:32:11.062Z,5.21
2023-11-22T05:34:41.802Z,5.19
2023-11-22T05:37:12.275Z,5.18
2023-11-22T05:39:42.913Z,5.18
2023-11-22T05:42:13.471Z,5.17
2023-11-22T05:44:44.080Z,5.17
2023-11-22T05:47:14.942Z,5.16
2023-11-22T05:49:45.532Z,5.16
2023-11-22T05:52:16.066Z,5.15
2023-11-22T05:54:46.551Z,5.12
2023-11-22T05:57:17.355Z,5.11
2023-11-22T05:59:48.866Z,5.09
2023-11-22T06:02:19.382Z,5.09
2023-11-22T06:04:49.974Z,5.10
2023-11-22T06:07:20.655Z,5.11
2023-11-22T06:09:51.137Z,5.13
2023-11-22T06:12:21.704Z,5.13
2023-11-22T06:14:52.183Z,5.10
2023-11-22T06:17:22.625Z,5.06
2023-11-22T06:19:53.106Z,5.04
2023-11-22T06:22:23.589Z,5.01
2023-11-22T06:24:54.039Z,5.01
2023-11-22T06:27:24.557Z,4.98
2023-11-22T06:29:55.118Z,4.96
2023-11-22T06:32:25.701Z,4.96
2023-11-22T06:34:56.226Z,4.96
2023-11-22T06:37:27.273Z,4.96
2023-11-22T06:39:58.759Z,4.97
2023-11-22T06:42:29.464Z,4.98
2023-11-22T06:45:01.707Z,4.98
2023-11-22T06:47:32.859Z,4.97
2023-11-22T06:50:05.322Z,4.96
2023-11-22T06:52:34.470Z,4.94
2023-11-22T06:55:05.668Z,4.91
2023-11-22T06:57:36.179Z,4.89
2023-11-22T07:00:10.588Z,4.88
2023-11-22T07:02:41.910Z,4.88
2023-11-22T07:05:12.949Z,4.88
2023-11-22T07:07:43.582Z,4.87
2023-11-22T07:10:15.117Z,4.85
2023-11-22T07:12:45.632Z,4.83
2023-11-22T07:15:16.162Z,4.84
2023-11-22T07:17:47.398Z,4.85
2023-11-22T07:20:18.458Z,4.86
2023-11-22T07:22:56.236Z,4.88
2023-11-22T07:25:27.816Z,4.90
2023-11-22T07:27:58.612Z,4.90
2023-11-22T07:30:32.032Z,4.90
2023-11-22T07:33:02.776Z,4.88
2023-11-22T07:35:33.671Z,4.88
2023-11-22T07:38:04.794Z,4.88
2023-11-22T07:40:35.393Z,4.88
2023-11-22T07:43:06.209Z,4.88
2023-11-22T07:45:37.364Z,4.89
2023-11-22T07:48:08.425Z,4.92
2023-11-22T07:50:40.394Z,4.94
2023-11-22T07:53:10.978Z,4.95
2023-11-22T07:55:43.080Z,4.95
2023-11-22T07:58:13.726Z,4.93
2023-11-22T08:00:44.432Z,4.92
2023-11-22T08:03:16.922Z,4.88
2023-11-22T08:05:49.544Z,4.84
2023-11-22T08:08:21.144Z,4.82
2023-11-22T08:10:54.743Z,4.79
2023-11-22T08:13:25.381Z,4.80
2023-11-22T08:15:55.960Z,4.81
2023-11-22T08:18:29.071Z,4.84
2023-11-22T08:20:59.920Z,4.85
2023-11-22T08:23:32.083Z,4.84
2023-11-22T08:26:04.050Z,4.81
2023-11-22T08:28:35.415Z,4.76
2023-11-22T08:31:10.653Z,4.72
2023-11-22T08:33:42.184Z,4.67
2023-11-22T08:36:13.438Z,4.66
2023-11-22T08:38:44.892Z,4.62
2023-11-22T08:41:15.792Z,4.58
2023-11-22T08:43:49.239Z,4.52
2023-11-22T08:46:20.423Z,4.48
2023-11-22T08:48:51.907Z,4.44
2023-11-22T08:51:22.691Z,4.42
2023-11-22T08:53:53.340Z,4.40
2023-11-22T08:56:23.879Z,4.40
2023-11-22T08:58:55.890Z,4.41
2023-11-22T09:01:26.920Z,4.42
2023-11-22T09:03:58.617Z,4.43
2023-11-22T09:06:30.862Z,4.47
2023-11-22T09:09:02.044Z,4.48
2023-11-22T09:11:32.723Z,4.50
2023-11-22T09:14:06.042Z,4.54
2023-11-22T09:16:40.914Z,4.58
2023-11-22T09:19:12.055Z,4.59
2023-11-22T09:21:42.682Z,4.61
2023-11-22T09:24:13.883Z,4.63
2023-11-22T09:26:44.732Z,4.67
2023-11-22T09:29:15.670Z,4.74
2023-11-22T09:31:48.045Z,4.82
2023-11-22T09:34:17.073Z,4.88
2023-11-22T09:36:48.182Z,4.92
2023-11-22T09:39:22.883Z,4.94
2023-11-22T09:41:54.447Z,4.94
2023-11-22T09:44:25.204Z,4.93
2023-11-22T09:46:57.446Z,4.93
2023-11-22T09:49:32.300Z,4.96
2023-11-22T09:52:06.125Z,5.00
2023-11-22T09:54:39.112Z,5.03
2023-11-22T09:57:12.122Z,5.05
2023-11-22T09:59:43.725Z,5.06
2023-11-22T10:02:14.427Z,5.09
2023-11-22T10:04:46.332Z,5.09
2023-11-22T10:07:18.184Z,5.08
2023-11-22T10:09:48.779Z,5.11
2023-11-22T10:12:23.260Z,5.11
2023-11-22T10:14:53.849Z,5.11
2023-11-22T10:17:24.511Z,5.13
2023-11-22T10:19:56.886Z,5.15
2023-11-22T10:22:25.873Z,5.17
2023-11-22T10:25:02.048Z,5.19
2023-11-22T10:27:32.620Z,5.23
2023-11-22T10:30:04.106Z,5.24
2023-11-22T10:32:35.010Z,5.27
2023-11-22T10:35:06.376Z,5.26
2023-11-22T10:37:36.941Z,5.27
2023-11-22T10:40:11.552Z,5.26
2023-11-22T10:42:45.566Z,5.25
2023-11-22T10:45:17.772Z,5.21
2023-11-22T10:47:51.930Z,5.13
2023-11-22T10:50:23.245Z,5.05
2023-11-22T10:52:58.305Z,5.01
2023-11-22T10:55:33.590Z,4.93
2023-11-22T10:58:07.517Z,4.87
2023-11-22T11:00:42.992Z,4.83
2023-11-22T11:03:19.844Z,4.82
2023-11-22T11:05:54.888Z,4.82
2023-11-22T11:08:28.720Z,4.82
2023-11-22T11:11:00.912Z,4.82
2023-11-22T11:13:32.913Z,4.82
2023-11-22T11:16:04.533Z,4.81
2023-11-22T11:18:36.115Z,4.79
2023-11-22T11:21:14.289Z,4.81
2023-11-22T11:23:45.708Z,4.83
2023-11-22T11:26:22.767Z,4.86
2023-11-22T11:28:54.875Z,4.89
2023-11-22T11:31:26.107Z,4.89
2023-11-22T11:34:00.414Z,4.92
2023-11-22T11:36:33.330Z,4.94
2023-11-22T11:39:12.139Z,4.95
2023-11-22T11:41:44.669Z,4.95
2023-11-22T11:44:15.367Z,4.93
2023-11-22T11:46:48.042Z,4.92
2023-11-22T11:49:18.556Z,4.92
2023-11-22T11:51:52.777Z,4.93
2023-11-22T11:54:23.476Z,4.88
2023-11-22T11:56:56.211Z,4.82
2023-11-22T11:59:27.534Z,4.78
2023-11-22T12:01:59.050Z,4.77
2023-11-22T12:04:29.712Z,4.78
2023-11-22T12:07:00.708Z,4.77
2023-11-22T12:09:31.780Z,4.76
2023-11-22T12:12:05.146Z,4.73
2023-11-22T12:14:35.836Z,4.70
2023-11-22T12:17:09.154Z,4.68
2023-11-22T12:19:39.683Z,4.66
2023-11-22T12:22:10.853Z,4.63
2023-11-22T12:24:41.384Z,4.62
2023-11-22T12:27:14.260Z,4.59
2023-11-22T12:29:44.815Z,4.53
2023-11-22T12:32:18.726Z,4.48
2023-11-22T12:34:49.807Z,4.45
2023-11-22T12:37:22.944Z,4.44
2023-11-22T12:39:53.686Z,4.46
2023-11-22T12:42:27.930Z,4.44
2023-11-22T12:44:59.297Z,4.40
2023-11-22T12:47:37.406Z,4.40
2023-11-22T12:50:10.702Z,4.43
2023-11-22T12:52:41.362Z,4.48
2023-11-22T12:55:12.114Z,4.54
2023-11-22T12:57:45.535Z,4.60
2023-11-22T13:00:18.191Z,4.66
2023-11-22T13:02:56.676Z,4.73
2023-11-22T13:05:33.950Z,4.82
2023-11-22T13:08:04.976Z,4.91
2023-11-22T13:10:36.805Z,4.99
2023-11-22T13:13:09.906Z,5.06
2023-11-22T13:15:41.467Z,5.10
2023-11-22T13:18:13.453Z,5.13
2023-11-22T13:20:44.385Z,5.13
2023-11-22T13:23:15.935Z,5.13
2023-11-22T13:25:47.357Z,5.12
2023-11-22T13:28:18.452Z,5.11
2023-11-22T13:30:50.272Z,5.11
2023-11-22T13:33:20.871Z,5.12
2023-11-22T13:35:52.423Z,5.14
2023-11-22T13:38:23.275Z,5.18
2023-11-22T13:40:53.854Z,5.21
2023-11-22T13:43:24.503Z,5.22
2023-11-22T13:45:55.007Z,5.24
2023-11-22T13:48:26.104Z,5.26
2023-11-22T13:51:01.104Z,5.26
2023-11-22T13:53:35.634Z,5.24
2023-11-22T13:56:10.236Z,5.21
2023-11-22T13:58:40.979Z,5.20
2023-11-22T14:01:16.547Z,5.18
2023-11-22T14:03:47.208Z,5.17
2023-11-22T14:06:18.371Z,5.15
2023-11-22T14:08:48.989Z,5.14
2023-11-22T14:11:19.606Z,5.13
2023-11-22T14:13:50.122Z,5.10
2023-11-22T14:16:20.691Z,5.08
2023-11-22T14:18:51.166Z,5.04
2023-11-22T14:21:21.615Z,5.02
2023-11-22T14:23:53.377Z,5.01
2023-11-22T14:26:24.891Z,5.02
2023-11-22T14:28:55.524Z,5.01
2023-11-22T14:31:26.630Z,5.00
2023-11-22T14:33:58.168Z,4.99
2023-11-22T14:36:28.716Z,4.96
2023-11-22T14:38:59.333Z,4.92
2023-11-22T14:41:30.820Z,4.91
2023-11-22T14:44:01.376Z,4.89
2023-11-22T14:46:31.930Z,4.86
2023-11-22T14:49:02.686Z,4.84
2023-11-22T14:51:34.869Z,4.80
2023-11-22T14:54:05.516Z,4.76
2023-11-22T14:56:36.223Z,4.75
2023-11-22T14:59:07.441Z,4.72
2023-11-22T15:01:38.745Z,4.70
2023-11-22T15:04:10.806Z,4.70
2023-11-22T15:06:41.398Z,4.70
2023-11-22T15:09:13.411Z,4.68
2023-11-22T15:11:44.450Z,4.65
2023-11-22T15:14:15.027Z,4.63
2023-11-22T15:16:45.577Z,4.63
2023-11-22T15:19:16.107Z,4.64
2023-11-22T15:21:46.613Z,4.63
2023-11-22T15:24:17.238Z,4.60
2023-11-22T15:26:48.210Z,4.57
2023-11-22T15:29:18.797Z,4.57
2023-11-22T15:31:49.521Z,4.55
2023-11-22T15:34:20.110Z,4.50
2023-11-22T15:36:50.610Z,4.43
2023-11-22T15:39:23.416Z,4.33
2023-11-22T15:41:54.794Z,4.21
2023-11-22T15:44:25.286Z,4.12
2023-11-22T15:46:55.793Z,4.05
2023-11-22T15:49:26.335Z,4.00
2023-11-22T15:51:57.191Z,3.97
2023-11-22T15:54:27.925Z,3.95
2023-11-22T15:56:58.453Z,3.95
2023-11-22T15:59:28.979Z,3.97
2023-11-22T16:01:59.555Z,3.99
2023-11-22T16:04:30.339Z,3.98
2023-11-22T16:07:00.779Z,3.98
2023-11-22T16:09:31.324Z,4.00
2023-11-22T16:12:01.792Z,4.00
2023-11-22T16:14:33.519Z,4.02
2023-11-22T16:17:05.871Z,4.05
2023-11-22T16:19:36.542Z,4.09
2023-11-22T16:22:07.448Z,4.10
2023-11-22T16:24:38.012Z,4.14
2023-11-22T16:27:08.706Z,4.13
2023-11-22T16:29:39.306Z,4.12
2023-11-22T16:32:10.050Z,4.12
2023-11-22T16:34:40.506Z,4.12
2023-11-22T16:37:10.954Z,4.12
2023-11-22T16:39:41.915Z,4.13
2023-11-22T16:42:12.634Z,4.15
2023-11-22T16:44:44.514Z,4.15
2023-11-22T16:47:17.053Z,4.14
2023-11-22T16:49:48.803Z,4.12
2023-11-22T16:52:19.959Z,4.10
2023-11-22T16:54:51.804Z,4.05
2023-11-22T16:57:22.258Z,3.99
2023-11-22T16:59:52.863Z,3.96
2023-11-22T17:02:23.832Z,3.93
2023-11-22T17:04:56.443Z,3.90
2023-11-22T17:07:27.062Z,3.88
2023-11-22T17:09:57.591Z,3.88
2023-11-22T17:12:30.109Z,3.87
2023-11-22T17:15:00.663Z,3.88
2023-11-22T17:17:31.278Z,3.90
2023-11-22T17:20:01.856Z,3.94
2023-11-22T17:22:32.394Z,3.96
2023-11-22T17:25:09.936Z,3.96
2023-11-22T17:27:49.008Z,3.93
2023-11-22T17:30:25.694Z,3.85
2023-11-22T17:32:56.983Z,3.78
2023-11-22T17:35:28.310Z,3.73
2023-11-22T17:38:01.908Z,3.70
2023-11-22T17:40:32.951Z,3.70
2023-11-22T17:43:03.696Z,3.73
2023-11-22T17:45:35.012Z,3.75
2023-11-22T17:48:06.055Z,3.76
2023-11-22T17:50:36.854Z,3.77
2023-11-22T17:53:07.661Z,3.77
2023-11-22T17:55:38.115Z,3.78
2023-11-22T17:58:09.166Z,3.78
2023-11-22T18:00:39.699Z,3.78
2023-11-22T18:03:10.951Z,3.78
2023-11-22T18:05:42.987Z,3.79
2023-11-22T18:08:15.846Z,3.78
2023-11-22T18:10:47.169Z,3.78
2023-11-22T18:13:17.772Z,3.77
2023-11-22T18:15:48.320Z,3.77
2023-11-22T18:18:19.669Z,3.77
2023-11-22T18:20:50.259Z,3.76
2023-11-22T18:23:20.777Z,3.75
2023-11-22T18:25:51.517Z,3.74
2023-11-22T18:28:23.520Z,3.72
2023-11-22T18:30:54.206Z,3.67
2023-11-22T18:33:25.465Z,3.66
2023-11-22T18:35:58.353Z,3.65
2023-11-22T18:38:28.863Z,3.62
2023-11-22T18:41:01.381Z,3.60
2023-11-22T18:43:31.930Z,3.59
2023-11-22T18:46:04.895Z,3.59
2023-11-22T18:48:35.731Z,3.59
2023-11-22T18:51:06.643Z,3.60
2023-11-22T18:53:37.284Z,3.62
2023-11-22T18:56:08.809Z,3.64
2023-11-22T18:58:39.569Z,3.65
2023-11-22T19:01:10.059Z,3.67
2023-11-22T19:03:40.548Z,3.68
2023-11-22T19:06:11.855Z,3.71
2023-11-22T19:08:42.382Z,3.72
2023-11-22T19:11:12.920Z,3.72
2023-11-22T19:13:43.381Z,3.71
2023-11-22T19:16:13.934Z,3.71
2023-11-22T19:18:44.520Z,3.72
2023-11-22T19:21:18.610Z,3.73
2023-11-22T19:23:50.192Z,3.74
2023-11-22T19:26:25.117Z,3.74
2023-11-22T19:28:55.670Z,3.73
2023-11-22T19:31:26.637Z,3.72
2023-11-22T19:33:57.612Z,3.71
2023-11-22T19:36:30.400Z,3.71
2023-11-22T19:39:00.969Z,3.71
2023-11-22T19:41:31.483Z,3.72
2023-11-22T19:44:01.986Z,3.74
2023-11-22T19:46:32.493Z,3.76
2023-11-22T19:49:04.874Z,3.77
2023-11-22T19:51:34.450Z,3.78
2023-11-22T19:54:05.120Z,3.77
2023-11-22T19:56:36.480Z,3.79
2023-11-22T19:59:07.066Z,3.79
2023-11-22T20:01:37.672Z,3.79
2023-11-22T20:04:08.386Z,3.80
2023-11-22T20:06:39.187Z,3.79
2023-11-22T20:09:10.703Z,3.79
2023-11-22T20:11:41.296Z,3.79
2023-11-22T20:14:11.849Z,3.79
2023-11-22T20:16:42.443Z,3.80
2023-11-22T20:19:13.023Z,3.80
2023-11-22T20:21:44.621Z,3.79
2023-11-22T20:24:15.214Z,3.78
2023-11-22T20:26:47.340Z,3.77
2023-11-22T20:29:17.805Z,3.76
2023-11-22T20:31:48.818Z,3.75
2023-11-22T20:34:19.456Z,3.74
2023-11-22T20:36:50.999Z,3.74
2023-11-22T20:39:21.982Z,3.73
2023-11-22T20:41:52.482Z,3.72
2023-11-22T20:44:23.038Z,3.71
2023-11-22T20:46:53.507Z,3.70
2023-11-22T20:49:26.504Z,3.69
2023-11-22T20:51:57.128Z,3.69
2023-11-22T20:54:28.120Z,3.70
2023-11-22T20:57:00.646Z,3.71
2023-11-22T20:59:32.825Z,3.69
2023-11-22T21:02:03.752Z,3.68
2023-11-22T21:04:34.366Z,3.68
2023-11-22T21:07:05.029Z,3.67
2023-11-22T21:09:36.830Z,3.67
2023-11-22T21:12:08.126Z,3.68
2023-11-22T21:14:39.520Z,3.69
2023-11-22T21:17:12.004Z,3.71
2023-11-22T21:19:46.115Z,3.71
2023-11-22T21:22:16.598Z,3.72
2023-11-22T21:24:47.120Z,3.72
2023-11-22T21:27:19.149Z,3.72
2023-11-22T21:29:49.693Z,3.72
2023-11-22T21:32:20.220Z,3.71
2023-11-22T21:34:51.704Z,3.71
2023-11-22T21:37:22.270Z,3.69
2023-11-22T21:39:52.753Z,3.68
2023-11-22T21:42:23.280Z,3.66
2023-11-22T21:44:53.811Z,3.65
2023-11-22T21:47:24.351Z,3.64
2023-11-22T21:49:54.801Z,3.62
2023-11-22T21:52:25.270Z,3.61
2023-11-22T21:54:55.820Z,3.61
2023-11-22T21:57:26.302Z,3.59
2023-11-22T21:59:56.820Z,3.56
2023-11-22T22:02:27.430Z,3.57
2023-11-22T22:04:58.099Z,3.57
2023-11-22T22:07:28.960Z,3.57
2023-11-22T22:10:00.151Z,3.57
2023-11-22T22:12:30.636Z,3.57
2023-11-22T22:15:01.177Z,3.57
2023-11-22T22:17:31.649Z,3.58
2023-11-22T22:20:03.155Z,3.57
2023-11-22T22:22:33.625Z,3.59
2023-11-22T22:25:05.164Z,3.60
2023-11-22T22:27:35.699Z,3.59
2023-11-22T22:30:07.098Z,3.56
2023-11-22T22:32:37.961Z,3.54
2023-11-22T22:35:09.426Z,3.53
2023-11-22T22:37:40.927Z,3.54
2023-11-22T22:40:13.660Z,3.55
2023-11-22T22:42:44.093Z,3.57
2023-11-22T22:45:14.762Z,3.59
2023-11-22T22:47:45.927Z,3.60
2023-11-22T22:50:17.161Z,3.61
2023-11-22T22:52:48.003Z,3.63
2023-11-22T22:55:18.579Z,3.64
2023-11-22T22:57:49.053Z,3.65
2023-11-22T23:00:28.669Z,3.66
2023-11-22T23:03:00.054Z,3.68
2023-11-22T23:05:31.032Z,3.69
2023-11-22T23:08:01.646Z,3.71
2023-11-22T23:10:32.086Z,3.72
2023-11-22T23:13:02.518Z,3.73
2023-11-22T23:15:32.951Z,3.73
2023-11-22T23:18:03.952Z,3.74
2023-11-22T23:20:43.914Z,3.75
2023-11-22T23:23:19.541Z,3.77
2023-11-22T23:25:50.066Z,3.78
2023-11-22T23:28:20.509Z,3.79
2023-11-22T23:30:50.957Z,3.81
2023-11-22T23:33:21.491Z,3.82
2023-11-22T23:35:52.008Z,3.82
2023-11-22T23:38:23.032Z,3.83
2023-11-22T23:40:53.502Z,3.83
2023-11-22T23:43:25.913Z,3.83
2023-11-22T23:45:55.567Z,3.82
2023-11-22T23:48:26.173Z,3.82
2023-11-22T23:50:56.805Z,3.82
2023-11-22T23:53:27.677Z,3.84
2023-11-22T23:55:58.173Z,3.84
2023-11-22T23:58:28.604Z,3.83
